Hillegom, Netherlands
Current Conditions -  °F | °C
As of 6:25 AM on Wednesday 26 Nov 2014 (Local Time) from EHAM Reporting Station
Clear Clear  
Wind Chill: 29°   Ceiling: Unl
Heat Index: 37°   Visibility: 6mi
Dew Point: 36°   Wind: 13mph
Humidity: 93%   Direction: 90°E
Pressure: 30.03"   Gusts: NA
Location:  52.29°N, 4.58°E
Report Text: EHAM 260525Z 09011KT 9000 NSC 03/02 Q1017 NOSIG
Loading
Personal Weather Stations






























Interactive Weather Map New forecast layout! Learn more

10-Day Weather Forecast

Advertisements
Track Severe Weather on mobile